createdAt,value
2019-02-25T00:03:58.692Z,3.00
2019-02-25T00:09:04.798Z,2.55
2019-02-25T00:14:09.401Z,2.37
2019-02-25T00:19:13.778Z,2.63
2019-02-25T00:24:19.227Z,3.30
2019-02-25T00:29:24.327Z,2.47
2019-02-25T00:34:29.018Z,2.10
2019-02-25T00:39:34.049Z,2.57
2019-02-25T00:44:38.423Z,2.30
2019-02-25T00:49:43.389Z,2.60
2019-02-25T00:54:47.651Z,2.67
2019-02-25T00:59:52.165Z,2.03
2019-02-25T01:04:57.128Z,1.77
2019-02-25T01:10:02.604Z,1.93
2019-02-25T01:15:07.930Z,1.93
2019-02-25T01:20:12.505Z,1.90
2019-02-25T01:25:17.387Z,2.13
2019-02-25T01:30:22.755Z,1.80
2019-02-25T01:35:27.802Z,1.70
2019-02-25T01:40:33.682Z,1.93
2019-02-25T01:45:38.618Z,2.07
2019-02-25T01:50:43.816Z,2.40
2019-02-25T01:55:48.733Z,2.67
2019-02-25T02:00:55.797Z,3.17
2019-02-25T02:06:00.696Z,2.80
2019-02-25T02:11:05.730Z,2.90
2019-02-25T02:16:10.337Z,3.13
2019-02-25T02:21:14.985Z,3.13
2019-02-25T02:26:21.197Z,2.95
2019-02-25T02:31:26.171Z,3.40
2019-02-25T02:36:32.985Z,3.23
2019-02-25T02:42:13.275Z,3.50
2019-02-25T02:47:25.186Z,3.27
2019-02-25T02:52:29.900Z,2.87
2019-02-25T02:57:34.361Z,3.57
2019-02-25T03:02:38.658Z,3.07
2019-02-25T03:07:44.288Z,3.07
2019-02-25T03:12:49.020Z,2.70
2019-02-25T03:17:53.688Z,3.47
2019-02-25T03:22:58.847Z,2.63
2019-02-25T03:28:03.534Z,3.30
2019-02-25T03:33:08.286Z,2.67
2019-02-25T03:38:12.970Z,2.90
2019-02-25T03:43:18.204Z,3.07
2019-02-25T03:48:23.197Z,2.77
2019-02-25T03:53:28.069Z,2.90
2019-02-25T03:58:32.892Z,3.40
2019-02-25T04:03:37.287Z,3.07
2019-02-25T04:08:41.742Z,2.70
2019-02-25T04:13:47.122Z,2.73
2019-02-25T04:18:51.941Z,3.10
2019-02-25T04:23:56.273Z,3.03
2019-02-25T04:29:03.051Z,2.73
2019-02-25T04:34:08.297Z,3.03
2019-02-25T04:39:13.056Z,3.10
2019-02-25T04:44:17.805Z,3.17
2019-02-25T04:49:22.550Z,3.20
2019-02-25T04:54:27.190Z,3.50
2019-02-25T04:59:31.716Z,3.50
2019-02-25T05:04:37.177Z,3.07
2019-02-25T05:09:41.584Z,2.90
2019-02-25T05:14:47.098Z,3.67
2019-02-25T05:19:51.862Z,3.23
2019-02-25T05:24:59.099Z,3.70
2019-02-25T05:30:04.840Z,3.27
2019-02-25T05:35:10.508Z,3.57
2019-02-25T05:40:15.579Z,3.07
2019-02-25T05:45:20.132Z,3.10
2019-02-25T05:50:26.849Z,3.27
2019-02-25T05:55:32.437Z,3.40
2019-02-25T06:00:38.021Z,3.10
2019-02-25T06:05:43.631Z,3.60
2019-02-25T06:10:48.469Z,3.20
2019-02-25T06:15:53.318Z,3.77
2019-02-25T06:21:01.169Z,3.50
2019-02-25T06:26:06.291Z,3.47
2019-02-25T06:31:11.128Z,2.60
2019-02-25T06:36:17.294Z,3.33
2019-02-25T06:41:23.231Z,2.80
2019-02-25T06:46:28.705Z,2.73
2019-02-25T06:51:33.664Z,3.20
2019-02-25T06:56:38.508Z,2.40
2019-02-25T07:01:45.863Z,3.00
2019-02-25T07:07:03.922Z,3.60
2019-02-25T07:12:17.488Z,3.63
2019-02-25T07:17:46.076Z,3.20
2019-02-25T07:23:12.095Z,3.23
2019-02-25T07:28:27.519Z,2.72
2019-02-25T07:33:48.344Z,2.97
2019-02-25T07:39:17.590Z,3.10
2019-02-25T07:44:38.846Z,2.95
2019-02-25T07:50:02.600Z,3.45
2019-02-25T07:55:32.725Z,2.53
2019-02-25T08:00:54.084Z,3.47
2019-02-25T08:06:18.387Z,2.85
2019-02-25T08:11:44.537Z,3.10
2019-02-25T08:17:10.522Z,2.92
2019-02-25T08:22:30.987Z,2.85
2019-02-25T08:27:57.256Z,2.87
2019-02-25T08:33:20.952Z,2.95
2019-02-25T08:38:38.559Z,3.33
2019-02-25T08:44:01.452Z,2.42
2019-02-25T08:49:10.569Z,2.67
2019-02-25T08:54:16.220Z,3.15
2019-02-25T08:59:23.520Z,4.30
2019-02-25T09:04:27.874Z,3.72
2019-02-25T09:09:33.357Z,3.90
2019-02-25T09:14:37.882Z,4.20
2019-02-25T09:19:42.434Z,3.50
2019-02-25T09:24:47.182Z,3.27
2019-02-25T09:29:52.173Z,3.22
2019-02-25T09:34:57.220Z,3.15
2019-02-25T09:40:03.776Z,3.02
2019-02-25T09:45:10.157Z,3.10
2019-02-25T09:50:14.919Z,3.30
2019-02-25T09:55:19.769Z,2.85
2019-02-25T10:00:24.574Z,2.77
2019-02-25T10:05:29.538Z,2.40
2019-02-25T10:10:33.989Z,2.40
2019-02-25T10:15:38.707Z,2.37
2019-02-25T10:20:43.295Z,2.70
2019-02-25T10:25:50.553Z,3.03
2019-02-25T10:30:54.916Z,2.67
2019-02-25T10:36:01.019Z,2.40
2019-02-25T10:41:05.691Z,2.67
2019-02-25T10:46:11.706Z,2.40
2019-02-25T10:51:16.688Z,2.30
2019-02-25T10:56:31.300Z,2.17
2019-02-25T11:01:37.587Z,2.20
2019-02-25T11:06:43.699Z,2.60
2019-02-25T11:11:48.997Z,2.57
2019-02-25T11:16:54.592Z,3.10
2019-02-25T11:22:00.459Z,2.97
2019-02-25T11:27:07.201Z,3.10
2019-02-25T11:32:11.953Z,2.67
2019-02-25T11:37:18.548Z,2.40
2019-02-25T11:42:23.039Z,2.45
2019-02-25T11:47:28.789Z,2.47
2019-02-25T11:52:33.397Z,2.43
2019-02-25T11:57:39.940Z,2.90
2019-02-25T12:02:45.571Z,1.83
2019-02-25T12:07:50.386Z,2.47
2019-02-25T12:12:57.676Z,2.80
2019-02-25T12:18:02.462Z,2.17
2019-02-25T12:23:07.567Z,2.30
2019-02-25T12:28:11.998Z,2.33
2019-02-25T12:33:18.000Z,2.25
2019-02-25T12:38:26.362Z,2.20
2019-02-25T12:43:30.807Z,2.10
2019-02-25T12:48:38.472Z,2.47
2019-02-25T12:53:44.136Z,1.70
2019-02-25T12:58:49.916Z,1.70
2019-02-25T13:03:55.597Z,2.23
2019-02-25T13:09:00.593Z,1.63
2019-02-25T13:14:05.172Z,1.20
2019-02-25T13:19:10.681Z,1.00
2019-02-25T13:24:16.109Z,1.00
2019-02-25T13:29:21.223Z,0.80
2019-02-25T13:34:25.677Z,1.37
2019-02-25T13:39:30.840Z,1.00
2019-02-25T13:44:35.949Z,0.70
2019-02-25T13:49:41.180Z,0.82
2019-02-25T13:54:49.917Z,0.80
2019-02-25T13:59:54.445Z,0.90
2019-02-25T14:04:59.744Z,0.80
2019-02-25T14:10:08.101Z,0.90
2019-02-25T14:15:13.862Z,1.07
2019-02-25T14:20:18.928Z,1.00
2019-02-25T14:25:25.733Z,0.80
2019-02-25T14:30:33.754Z,1.80
2019-02-25T14:35:39.147Z,1.37
2019-02-25T14:40:44.911Z,1.33
2019-02-25T14:45:53.957Z,2.40
2019-02-25T14:50:56.871Z,1.70
2019-02-25T14:56:03.838Z,0.90
2019-02-25T15:01:09.033Z,1.72
2019-02-25T15:06:14.308Z,1.03
2019-02-25T15:11:19.490Z,0.80
2019-02-25T15:16:24.386Z,0.60
2019-02-25T15:21:29.839Z,0.80
2019-02-25T15:26:42.581Z,1.13
2019-02-25T15:31:44.436Z,1.23
2019-02-25T15:37:00.708Z,1.07
2019-02-25T15:42:05.878Z,0.85
2019-02-25T15:47:12.859Z,1.70
2019-02-25T15:52:20.961Z,0.70
2019-02-25T15:57:26.410Z,0.75
2019-02-25T16:02:32.578Z,0.80
2019-02-25T16:07:38.076Z,2.70
2019-02-25T16:12:43.524Z,1.00
2019-02-25T16:17:51.676Z,1.30
2019-02-25T16:23:00.182Z,1.23
2019-02-25T16:28:05.845Z,1.70
2019-02-25T16:33:12.637Z,2.67
2019-02-25T16:38:21.127Z,1.93
2019-02-25T16:43:25.235Z,1.20
2019-02-25T16:48:30.803Z,1.10
2019-02-25T16:53:38.675Z,1.33
2019-02-25T16:58:45.354Z,1.10
2019-02-25T17:03:51.046Z,1.30
2019-02-25T17:08:57.808Z,1.33
2019-02-25T17:14:05.704Z,2.00
2019-02-25T17:19:10.749Z,1.27
2019-02-25T17:24:16.231Z,1.37
2019-02-25T17:29:23.121Z,0.90
2019-02-25T17:34:28.189Z,1.00
2019-02-25T17:39:35.048Z,1.10
2019-02-25T17:44:39.974Z,1.83
2019-02-25T17:49:46.334Z,3.10
2019-02-25T17:54:52.823Z,2.67
2019-02-25T17:59:58.107Z,1.80
2019-02-25T18:05:09.425Z,1.50
2019-02-25T18:10:17.683Z,2.77
2019-02-25T18:15:24.557Z,4.23
2019-02-25T18:20:31.003Z,3.95
2019-02-25T18:25:37.646Z,2.90
2019-02-25T18:30:47.316Z,1.73
2019-02-25T18:35:53.104Z,3.72
2019-02-25T18:40:59.910Z,3.90
2019-02-25T18:46:05.501Z,1.80
2019-02-25T18:51:12.218Z,1.70
2019-02-25T18:56:18.940Z,2.83
2019-02-25T19:01:25.297Z,3.60
2019-02-25T19:06:30.688Z,2.70
2019-02-25T19:11:35.920Z,2.80
2019-02-25T19:16:42.491Z,3.37
2019-02-25T19:21:49.831Z,3.20
2019-02-25T19:26:55.408Z,3.07
2019-02-25T19:32:01.134Z,4.12
2019-02-25T19:37:07.001Z,3.83
2019-02-25T19:42:15.570Z,3.40
2019-02-25T19:47:22.412Z,4.67
2019-02-25T19:52:30.675Z,3.87
2019-02-25T19:57:35.750Z,3.40
2019-02-25T20:02:42.067Z,4.10
2019-02-25T20:07:49.707Z,6.83
2019-02-25T20:12:55.745Z,8.67
2019-02-25T20:18:02.074Z,14.20
2019-02-25T20:23:08.563Z,9.20
2019-02-25T20:28:17.605Z,6.60
2019-02-25T20:33:23.615Z,4.50
2019-02-25T20:38:29.634Z,4.20
2019-02-25T20:43:34.476Z,4.23
2019-02-25T20:48:39.750Z,3.83
2019-02-25T20:53:46.139Z,4.40
2019-02-25T20:58:51.302Z,3.57
2019-02-25T21:03:56.852Z,3.47
2019-02-25T21:09:02.537Z,3.47
2019-02-25T21:14:08.145Z,3.37
2019-02-25T21:19:17.575Z,3.03
2019-02-25T21:24:21.580Z,3.13
2019-02-25T21:29:27.590Z,3.27
2019-02-25T21:34:34.655Z,3.47
2019-02-25T21:39:40.768Z,3.07
2019-02-25T21:44:50.139Z,3.00
2019-02-25T21:49:55.025Z,3.43
2019-02-25T21:55:02.513Z,2.93
2019-02-25T22:00:09.488Z,2.97
2019-02-25T22:05:16.708Z,3.13
2019-02-25T22:10:21.132Z,3.20
2019-02-25T22:15:25.670Z,3.60
2019-02-25T22:20:30.649Z,2.93
2019-02-25T22:25:35.210Z,2.73
2019-02-25T22:30:39.642Z,3.30
2019-02-25T22:35:46.936Z,3.30
2019-02-25T22:40:51.480Z,2.97
2019-02-25T22:46:00.256Z,3.20
2019-02-25T22:51:06.982Z,3.17
2019-02-25T22:56:13.542Z,3.23
2019-02-25T23:01:18.404Z,3.40
2019-02-25T23:06:25.255Z,3.80
2019-02-25T23:11:29.655Z,3.60
2019-02-25T23:16:34.259Z,3.87
2019-02-25T23:21:39.346Z,3.83
2019-02-25T23:26:44.567Z,3.63
2019-02-25T23:31:52.252Z,3.90
2019-02-25T23:36:57.466Z,3.73
2019-02-25T23:42:06.578Z,3.50
2019-02-25T23:47:10.931Z,3.20
2019-02-25T23:52:16.415Z,3.03
2019-02-25T23:57:21.717Z,3.57
